Time;durP1;ratioP1;P1;durP2;ratioP2;P2;SDS_P1;SDS_P2;PMS_P1;PMS_P2;Temp;Humidity;BMP_temperature;BMP_pressure;BME280_temperature;BME280_humidity;BME280_pressure;Samples;Min_cycle;Max_cycle;Signal;HPM_P1;HPM_P2
2022/12/30 00:02:02;;;;;;;182.70;84.03;;;7.60;99.90;;;;;;5052257;28;20271;-51
2022/12/30 00:04:32;;;;;;;127.17;71.93;;;7.60;99.90;;;;;;5052306;28;20316;-51
2022/12/30 00:07:01;;;;;;;105.00;55.73;;;7.60;99.90;;;;;;5051742;28;20667;-49
2022/12/30 00:09:29;;;;;;;411.97;108.50;;;7.60;99.90;;;;;;5051575;28;20646;-50
2022/12/30 00:33:06;;;;;;;122.97;47.63;;;7.60;99.90;;;;;;5051859;28;20682;-51
2022/12/30 00:34:30;;;;;;;113.97;52.60;;;7.50;99.90;;;;;;5038023;28;20249;-51
2022/12/30 00:37:00;;;;;;;612.37;113.93;;;7.50;99.90;;;;;;5051487;28;20274;-51
2022/12/30 00:39:28;;;;;;;315.50;96.13;;;7.50;99.90;;;;;;5050496;28;20205;-50
2022/12/30 00:44:42;;;;;;;23.77;15.27;;;7.50;99.90;;;;;;5051075;28;20279;-51
2022/12/30 00:47:11;;;;;;;215.80;87.53;;;7.60;99.90;;;;;;5037871;28;20293;-49
2022/12/30 00:57:57;;;;;;;1019.67;211.03;;;7.60;99.90;;;;;;5051124;28;20267;-51
2022/12/30 01:00:25;;;;;;;431.30;173.23;;;7.50;99.90;;;;;;5050729;28;20209;-51
2022/12/30 01:02:54;;;;;;;636.53;133.33;;;7.50;99.90;;;;;;5050636;28;20290;-51
2022/12/30 01:05:22;;;;;;;682.70;148.53;;;7.50;99.90;;;;;;5050871;28;20237;-50
2022/12/30 01:07:52;;;;;;;44.97;29.57;;;7.50;99.90;;;;;;5051126;28;20241;-50
2022/12/30 01:10:20;;;;;;;249.27;79.87;;;7.50;99.90;;;;;;5050864;28;20233;-51
2022/12/30 01:12:48;;;;;;;658.70;138.10;;;7.50;99.90;;;;;;5050760;28;20745;-51
2022/12/30 01:15:16;;;;;;;28.83;16.83;;;7.50;99.90;;;;;;5050766;28;20283;-51
2022/12/30 01:17:44;;;;;;;71.03;26.17;;;7.50;99.90;;;;;;5034507;28;20296;-52
2022/12/30 01:20:12;;;;;;;130.57;46.10;;;7.50;99.90;;;;;;5043445;28;20251;-51
2022/12/30 01:22:40;;;;;;;193.03;77.40;;;7.50;99.90;;;;;;5050492;28;20210;-51
2022/12/30 01:25:11;;;;;;;567.00;158.70;;;7.50;99.90;;;;;;5050829;28;20234;-52
2022/12/30 01:27:39;;;;;;;188.07;75.03;;;7.50;99.90;;;;;;5050350;28;20208;-50
2022/12/30 01:30:09;;;;;;;263.07;88.87;;;7.40;99.90;;;;;;5050225;28;20225;-50
2022/12/30 01:32:37;;;;;;;99.73;41.50;;;7.40;99.90;;;;;;5050497;28;20635;-51
2022/12/30 01:35:06;;;;;;;249.13;79.80;;;7.50;99.90;;;;;;5042449;28;20230;-50
2022/12/30 01:37:34;;;;;;;40.27;25.60;;;7.40;99.90;;;;;;5045838;28;20264;-51
2022/12/30 01:40:02;;;;;;;76.27;51.93;;;7.40;99.90;;;;;;5040142;28;20202;-50
2022/12/30 01:42:38;;;;;;;115.27;45.97;;;7.40;99.90;;;;;;5049220;28;20296;-50
2022/12/30 01:45:17;;;;;;;175.10;66.73;;;7.40;99.90;;;;;;5050213;28;20233;-50
2022/12/30 01:47:51;;;;;;;102.10;32.63;;;7.40;99.90;;;;;;5050581;28;20271;-51
2022/12/30 01:50:31;;;;;;;370.20;77.33;;;7.30;99.90;;;;;;5050172;28;20295;-51
2022/12/30 01:53:05;;;;;;;119.57;54.87;;;7.20;99.90;;;;;;5044419;28;20262;-50
2022/12/30 01:55:37;;;;;;;56.67;34.03;;;7.20;99.90;;;;;;5050362;28;20291;-51
2022/12/30 01:58:12;;;;;;;47.93;32.60;;;7.30;99.90;;;;;;5049966;28;20252;-51
2022/12/30 02:00:40;;;;;;;107.50;45.87;;;7.30;99.90;;;;;;5049583;28;20204;-50
2022/12/30 02:03:09;;;;;;;181.47;75.80;;;7.30;99.90;;;;;;5049978;28;20669;-51
2022/12/30 02:05:40;;;;;;;760.97;176.33;;;7.30;99.90;;;;;;5049570;28;20727;-51
2022/12/30 02:08:12;;;;;;;264.00;77.70;;;7.20;99.90;;;;;;5049130;28;20220;-51
2022/12/30 02:10:43;;;;;;;107.90;43.90;;;7.20;99.90;;;;;;5049641;28;20261;-51
2022/12/30 02:13:14;;;;;;;206.53;69.37;;;7.20;99.90;;;;;;5049403;28;20301;-51
2022/12/30 02:16:08;;;;;;;168.20;53.50;;;7.20;99.90;;;;;;5049337;28;20579;-51
2022/12/30 02:18:52;;;;;;;61.97;33.30;;;7.20;99.90;;;;;;5042761;28;20235;-51
2022/12/30 02:21:45;;;;;;;52.37;38.47;;;7.10;99.90;;;;;;5049398;28;20643;-51
2022/12/30 02:24:56;;;;;;;59.77;24.47;;;7.10;99.90;;;;;;5049205;28;20236;-51
2022/12/30 02:27:47;;;;;;;173.63;60.23;;;7.00;99.90;;;;;;5049526;28;20213;-51
2022/12/30 02:30:21;;;;;;;41.97;19.00;;;6.90;99.90;;;;;;5049436;28;20287;-51
2022/12/30 02:33:22;;;;;;;117.77;37.20;;;7.00;99.90;;;;;;5049804;28;20205;-51
2022/12/30 02:35:58;;;;;;;111.03;43.37;;;6.90;99.90;;;;;;5015956;28;20278;-51
2022/12/30 02:38:37;;;;;;;127.77;45.70;;;6.80;99.90;;;;;;5049740;28;20289;-51
2022/12/30 02:46:53;;;;;;;75.87;31.67;;;6.90;99.90;;;;;;5047707;28;20261;-51
2022/12/30 02:49:24;;;;;;;150.40;61.77;;;6.90;99.90;;;;;;5047814;28;20296;-51
2022/12/30 02:54:39;;;;;;;221.90;96.97;;;6.90;99.90;;;;;;5048973;28;20290;-51
2022/12/30 02:57:23;;;;;;;259.67;92.43;;;6.90;99.90;;;;;;5048922;28;20216;-50
2022/12/30 03:05:47;;;;;;;328.70;77.33;;;6.80;99.90;;;;;;5045793;28;20236;-51
2022/12/30 03:08:23;;;;;;;161.77;62.27;;;6.70;99.90;;;;;;5048216;28;20220;-51
2022/12/30 03:11:16;;;;;;;668.60;156.47;;;6.70;99.90;;;;;;5048591;28;20286;-50
2022/12/30 03:13:55;;;;;;;161.60;54.57;;;6.70;99.90;;;;;;5048720;28;20304;-51
2022/12/30 03:16:29;;;;;;;256.20;78.03;;;6.60;99.90;;;;;;5048766;28;20248;-51
2022/12/30 03:19:01;;;;;;;124.43;38.47;;;6.70;99.90;;;;;;5050136;28;20251;-51
2022/12/30 03:21:33;;;;;;;169.73;59.47;;;6.70;99.90;;;;;;5052696;28;20208;-51
2022/12/30 03:27:06;;;;;;;324.93;104.57;;;6.60;99.90;;;;;;5052879;28;20600;-51
2022/12/30 03:29:38;;;;;;;34.63;25.47;;;6.60;99.90;;;;;;5052817;28;20209;-51
2022/12/30 03:32:09;;;;;;;659.40;172.70;;;6.70;99.90;;;;;;5042063;28;20682;-50
2022/12/30 03:34:38;;;;;;;331.03;85.13;;;6.70;99.90;;;;;;5052520;28;20695;-51
2022/12/30 03:37:14;;;;;;;43.13;30.90;;;6.70;99.90;;;;;;5052516;28;20259;-50
2022/12/30 03:39:48;;;;;;;93.67;43.13;;;6.70;99.90;;;;;;5052324;28;20239;-51
2022/12/30 03:42:17;;;;;;;110.07;41.00;;;6.70;99.90;;;;;;5052635;28;20570;-50
2022/12/30 03:44:47;;;;;;;519.40;105.50;;;6.70;99.90;;;;;;5051728;28;20308;-49
2022/12/30 03:47:15;;;;;;;77.73;35.37;;;6.70;99.90;;;;;;5052498;28;20292;-51
2022/12/30 03:49:44;;;;;;;311.77;97.57;;;6.70;99.90;;;;;;5049284;28;20295;-51
2022/12/30 03:52:15;;;;;;;141.03;38.07;;;6.70;99.90;;;;;;5052403;28;20208;-51
2022/12/30 03:54:43;;;;;;;154.77;59.67;;;6.80;99.90;;;;;;5052398;28;20253;-49
2022/12/30 03:57:11;;;;;;;35.43;23.60;;;6.80;99.90;;;;;;5052160;28;20259;-50
2022/12/30 03:59:40;;;;;;;737.17;107.77;;;6.80;99.90;;;;;;5052230;28;20207;-51
2022/12/30 04:02:08;;;;;;;292.80;76.47;;;6.80;99.90;;;;;;5051854;28;20292;-51
2022/12/30 04:04:36;;;;;;;141.10;54.00;;;6.80;99.90;;;;;;5051895;28;20226;-49
2022/12/30 04:07:05;;;;;;;435.70;112.57;;;6.80;99.90;;;;;;5052136;28;20219;-51
2022/12/30 04:09:34;;;;;;;109.70;32.47;;;6.80;99.90;;;;;;5051741;28;20681;-51
2022/12/30 04:12:03;;;;;;;546.87;85.20;;;6.80;99.90;;;;;;5051939;28;20275;-51
2022/12/30 04:14:31;;;;;;;30.50;17.63;;;6.80;99.90;;;;;;5050996;28;20233;-50
2022/12/30 04:16:59;;;;;;;83.33;36.17;;;6.70;99.90;;;;;;5051719;28;20213;-51
2022/12/30 04:19:27;;;;;;;94.07;41.87;;;6.70;99.90;;;;;;5051147;28;20933;-51
2022/12/30 04:21:55;;;;;;;88.37;46.60;;;6.70;99.90;;;;;;5051962;28;20250;-52
2022/12/30 04:24:24;;;;;;;257.17;71.97;;;6.70;99.90;;;;;;5050309;28;20229;-51
2022/12/30 04:26:53;;;;;;;129.93;38.53;;;6.70;99.90;;;;;;5051719;28;20205;-50
2022/12/30 04:29:21;;;;;;;365.40;121.77;;;6.70;99.90;;;;;;5050851;28;20252;-51
2022/12/30 04:31:49;;;;;;;266.40;85.47;;;6.70;99.90;;;;;;5051585;28;20236;-51
2022/12/30 04:34:17;;;;;;;586.13;94.77;;;6.70;99.90;;;;;;5051243;28;20746;-51
2022/12/30 04:36:45;;;;;;;1002.80;200.83;;;6.60;99.90;;;;;;5051623;28;20291;-50
2022/12/30 04:39:14;;;;;;;440.70;75.73;;;6.60;99.90;;;;;;5051594;28;20236;-51
2022/12/30 04:41:42;;;;;;;1502.50;246.97;;;6.60;99.90;;;;;;5051182;28;20756;-51
2022/12/30 04:44:11;;;;;;;1628.10;273.80;;;6.60;99.90;;;;;;5051064;28;20288;-51
2022/12/30 04:46:39;;;;;;;304.83;73.60;;;6.50;99.90;;;;;;5051291;28;20729;-51
2022/12/30 04:49:08;;;;;;;1320.57;284.00;;;6.50;99.90;;;;;;5051285;28;20212;-51
2022/12/30 04:51:36;;;;;;;349.87;71.80;;;6.50;99.90;;;;;;5050967;28;20268;-51
2022/12/30 04:54:04;;;;;;;106.27;42.97;;;6.50;99.90;;;;;;5050970;28;20225;-49
2022/12/30 04:56:32;;;;;;;164.13;58.73;;;6.50;99.90;;;;;;5051212;28;20236;-50
2022/12/30 04:59:00;;;;;;;245.53;84.87;;;6.50;99.90;;;;;;5050685;28;20666;-50
2022/12/30 05:01:29;;;;;;;253.47;72.57;;;6.40;99.90;;;;;;5051096;28;20289;-50
2022/12/30 05:03:58;;;;;;;262.43;98.73;;;6.40;99.90;;;;;;5050529;28;20214;-51
2022/12/30 05:06:26;;;;;;;264.87;56.37;;;6.40;99.90;;;;;;5050776;28;20689;-50
2022/12/30 05:08:54;;;;;;;325.60;72.83;;;6.30;99.90;;;;;;5050679;28;20641;-51
2022/12/30 05:11:22;;;;;;;670.90;112.87;;;6.40;99.90;;;;;;5050611;28;20752;-51
2022/12/30 05:13:50;;;;;;;214.67;55.43;;;6.30;99.90;;;;;;5050458;28;20241;-51
2022/12/30 05:16:18;;;;;;;513.87;112.20;;;6.30;99.90;;;;;;5050623;28;20231;-50
2022/12/30 05:18:47;;;;;;;951.40;195.27;;;6.30;99.90;;;;;;5050763;28;20288;-50
2022/12/30 05:21:16;;;;;;;645.90;105.73;;;6.30;99.90;;;;;;5043458;28;20201;-50
2022/12/30 05:26:26;;;;;;;212.73;49.23;;;6.10;99.90;;;;;;5017418;28;20282;-51
2022/12/30 05:28:54;;;;;;;102.13;46.90;;;6.10;99.90;;;;;;5050688;28;20217;-51
2022/12/30 05:31:22;;;;;;;109.97;45.93;;;6.10;99.90;;;;;;5036480;28;20312;-50
2022/12/30 05:33:51;;;;;;;45.60;22.37;;;6.10;99.90;;;;;;5050672;28;20222;-51
2022/12/30 05:36:20;;;;;;;226.67;52.80;;;6.20;99.90;;;;;;5050094;28;20243;-52
2022/12/30 05:38:48;;;;;;;364.50;86.97;;;6.30;99.90;;;;;;5050701;28;20270;-51
2022/12/30 05:41:16;;;;;;;63.47;25.77;;;6.30;99.90;;;;;;5049097;28;20217;-50
2022/12/30 05:43:47;;;;;;;49.33;28.03;;;6.30;99.90;;;;;;5036699;28;20205;-51
2022/12/30 05:46:16;;;;;;;106.70;42.73;;;6.30;99.90;;;;;;5049982;28;20261;-50
2022/12/30 05:48:44;;;;;;;67.93;36.33;;;6.30;99.90;;;;;;5049728;28;20316;-51
2022/12/30 05:51:14;;;;;;;59.63;30.83;;;6.20;99.90;;;;;;5049582;28;20304;-51
2022/12/30 05:53:42;;;;;;;108.37;43.20;;;6.20;99.90;;;;;;5048795;28;20209;-51
2022/12/30 05:56:10;;;;;;;67.33;38.57;;;6.20;99.90;;;;;;5049971;28;20244;-51
2022/12/30 05:58:38;;;;;;;214.37;76.97;;;6.20;99.90;;;;;;5049156;28;20884;-51
2022/12/30 06:01:07;;;;;;;212.87;59.27;;;6.20;99.90;;;;;;5049608;28;20300;-51
2022/12/30 06:03:35;;;;;;;302.33;118.00;;;6.10;99.90;;;;;;5050197;28;20212;-51
2022/12/30 06:06:07;;;;;;;185.20;65.00;;;6.10;99.90;;;;;;5049800;28;20725;-51
2022/12/30 06:08:38;;;;;;;537.93;125.87;;;6.10;99.90;;;;;;5049793;28;20746;-50
2022/12/30 06:11:07;;;;;;;188.30;51.23;;;6.00;99.90;;;;;;5045598;28;20212;-51
2022/12/30 06:13:35;;;;;;;120.03;50.43;;;6.00;99.90;;;;;;5049859;28;20296;-51
2022/12/30 06:16:03;;;;;;;220.20;61.70;;;6.00;99.90;;;;;;5049734;28;20252;-51
2022/12/30 06:18:32;;;;;;;203.50;82.43;;;6.00;99.90;;;;;;5050385;28;20547;-51
2022/12/30 06:21:00;;;;;;;66.90;36.60;;;6.00;99.90;;;;;;5050008;28;20241;-50
2022/12/30 06:23:28;;;;;;;97.47;50.13;;;5.90;99.90;;;;;;5049206;28;20278;-51
2022/12/30 06:25:59;;;;;;;183.43;70.43;;;5.90;99.90;;;;;;5049670;28;20228;-51
2022/12/30 06:28:29;;;;;;;79.57;31.67;;;5.90;99.90;;;;;;5049938;28;20346;-50
2022/12/30 06:30:57;;;;;;;246.20;53.00;;;5.90;99.90;;;;;;5049511;28;20295;-51
2022/12/30 06:33:25;;;;;;;131.80;43.03;;;5.90;99.90;;;;;;5049467;28;20745;-50
2022/12/30 06:35:53;;;;;;;355.20;105.77;;;6.00;99.90;;;;;;5049355;28;20235;-51
2022/12/30 06:38:22;;;;;;;420.23;136.77;;;5.90;99.90;;;;;;5049284;28;20260;-51
2022/12/30 06:40:50;;;;;;;153.87;52.80;;;5.80;99.90;;;;;;5049419;28;20300;-51
2022/12/30 06:43:19;;;;;;;885.60;168.87;;;5.80;99.90;;;;;;5033494;28;20351;-50
2022/12/30 06:45:47;;;;;;;341.00;82.70;;;5.80;99.90;;;;;;5036925;28;20231;-50
2022/12/30 06:48:16;;;;;;;189.93;51.23;;;5.80;99.90;;;;;;5030894;28;20297;-51
2022/12/30 06:50:44;;;;;;;553.53;88.90;;;5.80;99.90;;;;;;5048148;28;20263;-50
2022/12/30 06:53:12;;;;;;;208.10;65.00;;;5.70;99.90;;;;;;5048605;28;20222;-50
2022/12/30 06:55:40;;;;;;;178.73;66.67;;;5.70;99.90;;;;;;5034647;28;20314;-51
2022/12/30 06:58:08;;;;;;;35.80;22.23;;;5.70;99.90;;;;;;5041422;28;20237;-50
2022/12/30 07:00:38;;;;;;;247.73;73.73;;;5.70;99.90;;;;;;5046716;28;20619;-50
2022/12/30 07:03:06;;;;;;;225.43;56.70;;;5.80;99.90;;;;;;5048228;28;20275;-51
2022/12/30 07:05:34;;;;;;;179.23;72.03;;;5.80;99.90;;;;;;5048439;28;20287;-50
2022/12/30 07:08:02;;;;;;;408.10;129.83;;;5.80;99.90;;;;;;5048366;28;20289;-50
2022/12/30 07:10:30;;;;;;;133.10;37.23;;;5.80;99.90;;;;;;5045233;28;20205;-51
2022/12/30 07:12:58;;;;;;;149.67;53.97;;;5.80;99.90;;;;;;5048986;28;20235;-51
2022/12/30 07:15:26;;;;;;;243.67;56.50;;;5.80;99.90;;;;;;5048289;28;20240;-50
2022/12/30 07:17:56;;;;;;;351.73;66.37;;;5.90;99.90;;;;;;5048895;28;20213;-49
2022/12/30 07:20:24;;;;;;;1195.50;313.80;;;5.90;99.90;;;;;;5048964;28;20279;-49
2022/12/30 07:22:52;;;;;;;453.30;88.83;;;5.80;99.90;;;;;;5036008;28;20205;-50
2022/12/30 07:25:29;;;;;;;218.20;64.53;;;5.80;99.90;;;;;;5047677;28;20229;-51
2022/12/30 07:27:59;;;;;;;202.80;82.10;;;5.80;99.90;;;;;;5046253;28;21544;-51
2022/12/30 07:30:28;;;;;;;469.87;133.87;;;5.80;99.90;;;;;;5046803;28;20228;-49
2022/12/30 07:32:58;;;;;;;223.50;64.70;;;5.80;99.90;;;;;;5047976;28;20228;-50
2022/12/30 07:35:26;;;;;;;555.20;121.53;;;5.80;99.90;;;;;;5045857;28;20229;-51
2022/12/30 07:37:54;;;;;;;179.83;65.57;;;5.80;99.90;;;;;;5041492;28;20209;-50
2022/12/30 07:40:22;;;;;;;156.70;62.70;;;5.90;99.90;;;;;;5032176;28;20206;-50
2022/12/30 07:42:50;;;;;;;726.30;154.27;;;5.90;99.90;;;;;;5046565;28;20210;-51
2022/12/30 07:45:19;;;;;;;798.27;146.30;;;5.90;99.90;;;;;;5045780;28;20803;-50
2022/12/30 07:47:47;;;;;;;923.10;181.20;;;5.90;99.90;;;;;;5046378;28;20237;-50
2022/12/30 07:50:16;;;;;;;106.53;50.30;;;5.90;99.90;;;;;;5046279;28;20197;-50
2022/12/30 07:52:44;;;;;;;603.30;125.40;;;6.00;99.90;;;;;;5046652;28;20259;-50
2022/12/30 07:55:12;;;;;;;402.93;81.57;;;6.00;99.90;;;;;;5047532;28;20253;-50
2022/12/30 07:57:41;;;;;;;337.03;56.37;;;5.90;99.90;;;;;;5048478;28;20257;-51
2022/12/30 08:00:10;;;;;;;227.77;99.70;;;6.00;99.90;;;;;;5046478;28;20701;-50
2022/12/30 08:02:39;;;;;;;131.90;52.23;;;6.10;99.90;;;;;;5045087;28;20206;-51
2022/12/30 08:05:09;;;;;;;1217.70;338.53;;;6.10;99.90;;;;;;5037579;28;20675;-51
2022/12/30 08:07:38;;;;;;;791.70;173.93;;;6.20;99.90;;;;;;5042679;28;20605;-50
2022/12/30 08:10:07;;;;;;;328.30;82.83;;;6.20;99.90;;;;;;5033222;28;20300;-51
2022/12/30 08:12:36;;;;;;;228.37;50.67;;;6.20;99.90;;;;;;5044039;28;20249;-51
2022/12/30 08:15:05;;;;;;;408.87;89.33;;;6.20;99.90;;;;;;5041715;28;20235;-51
2022/12/30 08:17:33;;;;;;;319.43;79.47;;;6.30;99.90;;;;;;5032325;28;20206;-51
2022/12/30 08:20:01;;;;;;;260.90;98.33;;;6.30;99.90;;;;;;5036635;28;20241;-50
2022/12/30 08:22:29;;;;;;;692.07;157.30;;;6.20;99.90;;;;;;5032053;28;20683;-50
2022/12/30 08:24:59;;;;;;;215.57;66.43;;;6.30;99.90;;;;;;5035393;28;20231;-51
2022/12/30 08:27:27;;;;;;;1801.67;296.27;;;6.30;99.90;;;;;;5049137;28;20297;-51
2022/12/30 08:29:55;;;;;;;1372.87;301.23;;;6.30;99.90;;;;;;5048043;28;20212;-50
2022/12/30 08:32:23;;;;;;;563.97;157.97;;;6.30;99.90;;;;;;5049492;28;20198;-50
2022/12/30 08:34:51;;;;;;;946.67;200.10;;;6.30;99.90;;;;;;5046345;28;20233;-51
2022/12/30 08:37:19;;;;;;;938.90;166.07;;;6.30;99.90;;;;;;5049910;28;20243;-51
2022/12/30 08:39:47;;;;;;;200.63;60.23;;;6.30;99.90;;;;;;5050277;28;20205;-50
2022/12/30 08:42:18;;;;;;;620.03;156.63;;;6.30;99.90;;;;;;5050900;28;20617;-50
2022/12/30 08:44:46;;;;;;;510.33;98.47;;;6.20;99.90;;;;;;5042931;28;20231;-50
2022/12/30 08:47:14;;;;;;;1482.50;271.30;;;6.30;99.90;;;;;;5046037;28;20233;-51
2022/12/30 08:49:43;;;;;;;997.93;143.13;;;6.30;99.90;;;;;;5049692;28;20220;-50
2022/12/30 08:52:11;;;;;;;985.27;182.53;;;6.40;99.90;;;;;;5050737;28;20291;-51
2022/12/30 08:54:39;;;;;;;1863.67;316.53;;;6.30;99.90;;;;;;5050414;28;20264;-51
2022/12/30 08:57:09;;;;;;;1812.17;344.30;;;6.30;99.90;;;;;;5051370;28;20208;-51
2022/12/30 08:59:38;;;;;;;1028.57;249.43;;;6.30;99.90;;;;;;5050987;28;20304;-51
2022/12/30 09:02:06;;;;;;;1131.00;226.67;;;6.30;99.90;;;;;;5036725;28;20214;-50
2022/12/30 09:04:35;;;;;;;1999.90;325.83;;;6.40;99.90;;;;;;5051295;28;20235;-50
2022/12/30 09:07:03;;;;;;;1386.23;236.40;;;6.40;99.90;;;;;;5050780;28;20258;-50
2022/12/30 09:09:31;;;;;;;288.13;89.07;;;6.40;99.90;;;;;;5048509;28;20217;-52
2022/12/30 09:11:59;;;;;;;1459.27;237.80;;;6.50;99.90;;;;;;5049904;28;20295;-50
2022/12/30 09:14:28;;;;;;;1441.30;287.37;;;6.60;99.90;;;;;;5047843;28;20241;-51
2022/12/30 09:16:57;;;;;;;1999.90;342.27;;;6.60;99.90;;;;;;5043374;28;20244;-49
2022/12/30 09:19:25;;;;;;;1999.90;386.47;;;6.70;99.90;;;;;;5034882;28;20202;-50
2022/12/30 09:21:53;;;;;;;1999.90;559.30;;;6.70;99.90;;;;;;5045708;28;20201;-50
2022/12/30 09:24:22;;;;;;;1999.90;480.37;;;6.80;99.90;;;;;;5050171;28;20264;-50
2022/12/30 09:26:50;;;;;;;1999.90;429.43;;;6.70;99.90;;;;;;5050757;28;20215;-51
2022/12/30 09:29:27;;;;;;;1999.90;317.00;;;6.70;99.90;;;;;;5047664;28;20232;-50
2022/12/30 09:31:56;;;;;;;1999.90;734.60;;;6.80;99.90;;;;;;5042188;28;20219;-52
2022/12/30 09:34:25;;;;;;;1999.90;383.53;;;6.80;99.90;;;;;;5042699;28;20230;-49
2022/12/30 09:36:53;;;;;;;1999.90;409.40;;;6.90;99.90;;;;;;5047640;28;20230;-50
2022/12/30 09:39:30;;;;;;;1999.90;398.00;;;6.90;99.90;;;;;;5048325;28;20197;-51
2022/12/30 09:45:02;;;;;;;1999.90;558.73;;;7.00;99.90;;;;;;5047656;28;20260;-51
2022/12/30 09:47:35;;;;;;;1594.53;259.50;;;7.00;99.90;;;;;;5046869;28;20267;-50
2022/12/30 09:50:12;;;;;;;1999.90;536.67;;;7.10;99.90;;;;;;5048383;28;20259;-50
2022/12/30 09:52:49;;;;;;;1999.90;648.23;;;7.20;99.90;;;;;;5048478;28;20248;-50
2022/12/30 09:55:21;;;;;;;1999.90;556.97;;;7.20;99.90;;;;;;5049439;28;20316;-50
2022/12/30 09:57:53;;;;;;;1999.90;647.23;;;7.30;99.90;;;;;;5050325;28;20213;-50
2022/12/30 10:00:23;;;;;;;1999.90;764.43;;;7.40;99.90;;;;;;5049587;28;20296;-50
2022/12/30 10:03:00;;;;;;;1999.90;518.43;;;7.40;99.90;;;;;;5050121;28;20793;-51
2022/12/30 10:05:42;;;;;;;1741.33;337.23;;;7.40;99.90;;;;;;5042217;28;20227;-51
2022/12/30 10:08:24;;;;;;;1999.90;443.73;;;7.50;99.90;;;;;;5044207;28;20789;-50
2022/12/30 10:10:57;;;;;;;1999.90;368.70;;;7.60;99.90;;;;;;5048934;28;20252;-51
2022/12/30 10:13:33;;;;;;;1871.10;331.00;;;7.60;99.90;;;;;;5049634;28;20305;-52
2022/12/30 10:16:07;;;;;;;1999.90;500.13;;;7.60;99.90;;;;;;5048935;28;20233;-51
2022/12/30 10:19:03;;;;;;;1999.90;944.73;;;7.60;99.90;;;;;;5042452;28;20579;-52
2022/12/30 10:21:43;;;;;;;1999.90;734.43;;;7.60;99.90;;;;;;5040529;28;20236;-51
2022/12/30 10:24:26;;;;;;;1999.90;416.87;;;7.50;99.90;;;;;;5048197;28;20702;-50
2022/12/30 10:26:57;;;;;;;1999.90;758.33;;;7.50;99.90;;;;;;5048311;28;20197;-50
2022/12/30 10:29:31;;;;;;;1999.90;601.47;;;7.60;99.90;;;;;;5048321;28;20204;-50
2022/12/30 10:32:06;;;;;;;1999.90;390.60;;;7.60;99.90;;;;;;5049571;28;20631;-51
2022/12/30 10:34:36;;;;;;;1999.90;583.73;;;7.60;99.90;;;;;;5049070;28;20240;-51
2022/12/30 10:37:06;;;;;;;1999.90;446.37;;;7.60;99.90;;;;;;5041533;28;20202;-50
2022/12/30 10:39:37;;;;;;;1570.63;262.20;;;7.60;99.90;;;;;;5037041;28;20770;-51
2022/12/30 10:42:23;;;;;;;1999.90;542.37;;;7.70;99.90;;;;;;5040989;28;20267;-50
2022/12/30 10:45:05;;;;;;;1999.90;770.90;;;7.70;99.90;;;;;;5042303;28;20253;-50
2022/12/30 10:47:47;;;;;;;1633.23;232.73;;;7.70;99.90;;;;;;5047165;28;20245;-49
2022/12/30 10:50:26;;;;;;;1481.03;290.87;;;7.80;99.90;;;;;;5045351;28;20680;-50
2022/12/30 10:52:55;;;;;;;1999.90;468.87;;;7.80;99.90;;;;;;5047220;28;20283;-50
2022/12/30 10:55:31;;;;;;;1999.90;759.77;;;7.70;99.90;;;;;;5046715;28;20242;-50
2022/12/30 10:58:02;;;;;;;1999.90;491.77;;;7.70;99.90;;;;;;5045770;28;20255;-51
2022/12/30 11:00:32;;;;;;;1999.90;540.73;;;7.80;99.90;;;;;;5048323;28;20201;-51
2022/12/30 11:03:04;;;;;;;1999.90;674.47;;;7.80;99.90;;;;;;5045438;28;20205;-50
2022/12/30 11:05:38;;;;;;;1999.90;332.97;;;7.70;99.90;;;;;;5046151;28;20633;-50
2022/12/30 11:08:20;;;;;;;1999.90;543.37;;;7.70;99.90;;;;;;5047926;28;20218;-51
2022/12/30 11:10:58;;;;;;;1999.90;474.13;;;7.70;99.90;;;;;;5042361;28;20296;-51
2022/12/30 11:16:13;;;;;;;1999.90;660.77;;;7.70;99.90;;;;;;5046847;28;20213;-51
2022/12/30 11:18:46;;;;;;;1306.67;223.87;;;7.70;99.90;;;;;;5046834;28;20683;-50
2022/12/30 11:21:24;;;;;;;1999.90;444.17;;;7.80;99.90;;;;;;5047265;28;20198;-51
2022/12/30 11:23:55;;;;;;;1999.90;513.40;;;7.80;99.90;;;;;;5029664;28;20241;-51
2022/12/30 11:26:26;;;;;;;1392.73;259.33;;;7.70;99.90;;;;;;5044421;28;20205;-52
2022/12/30 11:28:56;;;;;;;1267.23;236.90;;;7.80;99.90;;;;;;5037251;28;20655;-49
2022/12/30 11:31:33;;;;;;;1999.90;528.20;;;7.90;99.90;;;;;;5030403;28;20201;-51
2022/12/30 11:34:03;;;;;;;1999.90;517.43;;;7.90;99.90;;;;;;5029798;28;20210;-50
2022/12/30 11:36:37;;;;;;;1999.90;903.13;;;7.90;99.90;;;;;;5036741;28;20204;-51
2022/12/30 11:39:26;;;;;;;1999.90;524.93;;;7.90;99.90;;;;;;5030896;28;20696;-50
2022/12/30 11:41:56;;;;;;;1999.90;506.93;;;8.00;99.90;;;;;;5048964;28;20201;-51
2022/12/30 11:44:25;;;;;;;1999.90;622.13;;;8.00;99.90;;;;;;5051999;28;20252;-51
2022/12/30 11:46:55;;;;;;;1999.90;816.60;;;8.10;99.90;;;;;;5040360;28;20838;-51
2022/12/30 11:49:31;;;;;;;1978.57;404.77;;;8.20;99.90;;;;;;5051835;28;20275;-51
2022/12/30 11:52:09;;;;;;;1973.43;346.77;;;8.20;99.90;;;;;;5040128;28;20200;-49
2022/12/30 11:54:47;;;;;;;1999.90;498.87;;;8.20;99.90;;;;;;5039076;28;20891;-51
2022/12/30 11:57:26;;;;;;;1931.10;368.83;;;8.10;99.90;;;;;;5040193;28;20294;-51
2022/12/30 11:59:57;;;;;;;1156.23;209.03;;;8.10;99.90;;;;;;5052195;28;20284;-50
2022/12/30 12:02:28;;;;;;;1960.83;384.00;;;8.10;99.90;;;;;;5051700;28;20213;-51
2022/12/30 12:04:57;;;;;;;1999.90;409.87;;;8.10;99.90;;;;;;5051782;28;20224;-51
2022/12/30 12:07:34;;;;;;;1999.90;426.33;;;8.10;99.90;;;;;;5051677;28;20236;-49
2022/12/30 12:10:15;;;;;;;1876.80;383.60;;;8.10;99.90;;;;;;5051616;28;20211;-51
2022/12/30 12:12:48;;;;;;;1999.90;641.97;;;8.00;99.90;;;;;;5049892;28;20213;-51
2022/12/30 12:15:28;;;;;;;1999.90;373.17;;;8.10;99.90;;;;;;5049612;28;20240;-51
2022/12/30 12:17:59;;;;;;;1223.13;298.77;;;8.00;99.90;;;;;;5051473;28;20299;-51
2022/12/30 12:20:33;;;;;;;1999.90;603.97;;;8.10;99.90;;;;;;5043280;28;20214;-51
2022/12/30 12:23:15;;;;;;;887.17;190.70;;;8.10;99.90;;;;;;5051604;28;20209;-49
2022/12/30 12:25:51;;;;;;;443.30;94.47;;;8.10;99.90;;;;;;5051547;28;20230;-50
2022/12/30 12:28:19;;;;;;;1999.90;503.30;;;8.20;99.90;;;;;;5051555;28;20263;-51
2022/12/30 12:31:04;;;;;;;1999.90;654.87;;;8.20;99.90;;;;;;5051058;28;20236;-51
2022/12/30 12:33:41;;;;;;;1999.90;825.13;;;8.20;99.90;;;;;;5051412;28;20237;-50
2022/12/30 12:36:20;;;;;;;1867.10;402.17;;;8.10;99.90;;;;;;5050864;28;20267;-51
2022/12/30 12:38:57;;;;;;;1999.90;762.30;;;8.10;99.90;;;;;;5050542;28;20293;-51
2022/12/30 12:41:40;;;;;;;1999.90;881.93;;;8.20;99.90;;;;;;5048218;28;20728;-51
2022/12/30 12:44:26;;;;;;;1999.90;503.13;;;8.20;99.90;;;;;;5050119;28;20233;-52
2022/12/30 12:47:03;;;;;;;1999.90;538.70;;;8.20;99.90;;;;;;5051097;28;20632;-50
2022/12/30 12:49:50;;;;;;;1494.53;244.60;;;8.30;99.90;;;;;;5050502;28;20259;-51
2022/12/30 12:52:32;;;;;;;1942.83;372.70;;;8.30;99.90;;;;;;5038217;28;20672;-51
2022/12/30 12:55:20;;;;;;;1999.90;751.23;;;8.20;99.90;;;;;;5043266;28;20271;-51
2022/12/30 12:57:58;;;;;;;1504.00;323.80;;;8.20;99.90;;;;;;5048468;28;20209;-50
2022/12/30 13:00:34;;;;;;;1999.90;654.53;;;8.20;99.90;;;;;;5048531;28;20205;-51
2022/12/30 13:03:36;;;;;;;1999.90;868.20;;;8.20;99.90;;;;;;5048128;28;20255;-52
2022/12/30 13:06:12;;;;;;;1999.90;464.77;;;8.20;99.90;;;;;;5042001;28;20889;-50
2022/12/30 13:08:58;;;;;;;1999.90;797.00;;;8.20;99.90;;;;;;5047790;28;20308;-51
2022/12/30 13:11:38;;;;;;;1999.90;667.37;;;8.20;99.90;;;;;;5048189;28;20267;-51
2022/12/30 13:14:16;;;;;;;1999.90;459.33;;;8.10;99.90;;;;;;5047459;28;20201;-51
2022/12/30 13:16:50;;;;;;;1999.90;458.03;;;8.10;99.90;;;;;;5050239;28;20296;-51
2022/12/30 13:19:22;;;;;;;1999.90;455.13;;;8.10;99.90;;;;;;5049746;28;20662;-51
2022/12/30 13:21:56;;;;;;;1948.30;442.03;;;8.10;99.90;;;;;;5050297;28;20229;-51
2022/12/30 13:24:28;;;;;;;1999.90;708.40;;;8.20;99.90;;;;;;5050427;28;20261;-51
2022/12/30 13:26:58;;;;;;;1999.90;787.13;;;8.10;99.90;;;;;;5050231;28;20254;-50
2022/12/30 13:29:32;;;;;;;1999.90;842.60;;;8.10;99.90;;;;;;5049829;28;20197;-51
2022/12/30 13:32:12;;;;;;;1999.90;637.87;;;8.10;99.90;;;;;;5049885;28;20737;-51
2022/12/30 13:34:47;;;;;;;1999.90;480.87;;;8.10;99.90;;;;;;5049219;28;20225;-51
2022/12/30 13:37:24;;;;;;;1999.90;530.93;;;8.10;99.90;;;;;;5049555;28;20643;-51
2022/12/30 13:39:57;;;;;;;1534.70;341.37;;;8.20;99.90;;;;;;5050382;28;20209;-51